Latest Coastal Weather Observations for Point Perpendicular

IDN60701

Issued at 1:51 pm EST Wednesday 22 April 2015 (issued every 10 minutes, with the page automatically refreshed every 10 minutes)

About coastal observations | Map of coastal stations | Coastal observations for NSW | Marine services | Other Formats
Station Details ID: 068151 Name: POINT PERPENDICULAR AWS Lat: -35.09 Lon: 150.80 Height: 85.0 m
Data from the previous 72 hours. | See also: Recent months at Point Perpendicular
Date/Time
EST
Temp

°C
Wind Pressure Rain
since 9am
mm
Weather Cloud Vis
km
Sea
Height
m
Swell
Dir
 
Speed
knots
Gust
knots
hPa Trend Height
m
Period
s
Dir
22/01:35pm 16.1 SW 15 25 1013.1 - 14.0 - - - - - - -
22/01:30pm 15.5 SW 17 25 1013.1 - 13.4 - - - - - - -
22/01:00pm 15.7 SW 18 32 1012.5 - 5.8 - - - - - - -
22/12:30pm 15.8 SSW 21 35 1012.4 - 2.0 - - - - - - -
22/12:00pm 16.1 SSW 17 31 1013.2 - 1.4 - - - - - - -
22/11:30am 16.1 SSW 24 35 1013.1 - 1.2 - - - - - - -
22/11:00am 16.1 SSW 25 36 1012.9 - 1.2 - - - - - - -
22/10:30am 15.7 SSW 21 33 1013.8 - 1.2 - - - - - - -
22/10:00am 16.7 SSW 23 38 1013.1 - 0.6 - - - - - - -
22/09:30am 16.6 S 23 39 1012.9 - 0.4 - - - - - - -
22/09:00am 16.9 SSW 22 36 1013.3 - 20.0 - - - - - - -
22/08:30am 17.0 S 23 37 1013.3 - 19.0 - - - - - - -
22/08:00am 17.0 S 21 33 1013.7 - 18.6 - - - - - - -
22/07:30am 16.9 S 20 33 1013.7 - 18.6 - - - - - - -
22/07:00am 16.5 S 19 34 1013.5 - 18.4 - - - - - - -
22/06:30am 16.5 S 23 36 1013.4 - 18.2 - - - - - - -
22/06:00am 16.4 S 22 34 1014.2 - 17.2 - - - - - - -
22/05:30am 16.3 S 24 37 1014.2 - 17.0 - - - - - - -
22/05:00am 16.0 S 24 37 1014.0 - 16.2 - - - - - - -
22/04:30am 16.0 S 20 36 1013.7 - 15.2 - - - - - - -
22/04:00am 15.8 S 23 36 1013.6 - 14.2 - - - - - - -
22/03:30am 15.8 S 22 35 1013.7 - 14.0 - - - - - - -
22/03:00am 15.7 S 25 37 1014.5 - 13.4 - - - - - - -
22/02:30am 15.7 SSE 22 35 1015.0 - 13.0 - - - - - - -
22/02:00am 15.6 SSE 22 36 1015.3 - 12.0 - - - - - - -
22/01:30am 15.6 S 26 39 1014.9 - 9.4 - - - - - - -
22/01:00am 15.2 S 25 38 1014.8 - 8.4 - - - - - - -
22/12:30am 15.1 SSE 25 36 1014.8 - 8.2 - - - - - - -
22/12:00am 15.7 S 26 44 1015.6 - 7.4 - - - - - - -
 
Date/Time
EST
Temp

°C
Wind Pressure Rain
since 9am
mm
Weather Cloud Vis
km
Sea
Height
m
Swell
Dir
 
Speed
knots
Gust
knots
hPa Trend Height
m
Period
s
Dir
21/11:30pm 15.8 S 29 46 1015.8 - 7.2 - - - - - - -
21/11:00pm 15.1 SSE 26 38 1016.0 - 7.2 - - - - - - -
21/10:30pm 15.0 SSE 25 42 1016.8 - 7.2 - - - - - - -
21/10:00pm 14.9 SSE 24 39 1017.5 - 6.0 - - - - - - -
21/09:30pm 15.0 S 25 42 1017.7 - 4.8 - - - - - - -
21/09:00pm 15.7 SSE 24 39 1017.7 - 4.4 - - - - - - -
21/08:30pm 15.8 S 26 41 1017.7 - 4.4 - - - - - - -
21/08:00pm 15.7 SSE 28 41 1017.8 - 4.4 - - - - - - -
21/07:30pm 15.8 S 23 41 1018.2 - 4.4 - - - - - - -
21/07:00pm 15.2 SSE 25 41 1017.7 - 4.0 - - - - - - -
21/06:30pm 15.6 SSE 28 44 1017.7 - 3.4 - - - - - - -
21/06:00pm 15.9 SSE 27 47 1018.3 - 3.2 - - - - - - -
21/05:30pm 15.6 S 25 41 1018.4 - 3.0 - - - - - - -
21/05:00pm 15.2 SSE 26 43 1018.2 - 2.4 - - - - - - -
21/04:30pm 16.0 S 21 35 1018.5 - 2.4 - - - - - - -
21/04:00pm 16.3 S 25 39 1019.0 - 1.8 - - - - - - -
21/03:30pm 16.5 SSE 23 38 1019.2 - 1.8 - - - - - - -
21/03:00pm 16.0 S 21 37 1019.0 - 1.8 - - - - - - -
21/02:30pm 15.6 S 25 42 1019.2 - 1.8 - - - - - - -
21/02:00pm 15.7 S 23 37 1018.9 - 1.6 - - - - - - -
21/01:30pm 15.7 SSE 23 33 1019.3 - 1.2 - - - - - - -
21/01:00pm 15.4 SSE 26 43 1019.1 - 1.0 - - - - - - -
21/12:30pm 15.9 SSE 22 35 1020.7 - 0.8 - - - - - - -
21/12:00pm 16.1 SSE 24 36 1020.7 - 0.8 - - - - - - -
21/11:30am 16.3 SSE 24 36 1021.3 - 0.8 - - - - - - -
21/11:00am 16.2 SSE 24 39 1021.4 - 0.8 - - - - - - -
21/10:30am 16.4 SSE 23 37 1021.9 - 0.8 - - - - - - -
21/10:00am 15.7 SSE 22 33 1022.2 - 0.6 - - - - - - -
21/09:30am 15.6 SSE 23 36 1022.9 - 0.2 - - - - - - -
21/09:00am 16.2 SSE 21 36 1023.0 - 30.4 - - - - - - -
21/08:30am 16.9 SSE 23 37 1023.2 - 30.4 - - - - - - -
21/08:00am 16.2 SSE 21 35 1023.5 - 30.4 - - - - - - -
21/07:30am 16.8 SSE 21 32 1023.0 - 30.4 - - - - - - -
21/07:00am 16.7 SSE 22 36 1022.6 - 30.4 - - - - - - -
21/06:30am 16.8 SSE 21 33 1022.3 - 30.4 - - - - - - -
21/06:00am 16.8 SSE 22 34 1022.3 - 30.4 - - - - - - -
21/05:30am 16.8 SSE 22 33 1022.2 - 30.4 - - - - - - -
21/05:00am 16.8 SSE 23 33 1022.2 - 30.4 - - - - - - -
21/04:30am 16.6 SSE 23 41 1022.1 - 30.4 - - - - - - -
21/04:00am 16.6 SSE 23 43 1021.6 - 30.4 - - - - - - -
21/03:30am 16.5 SSE 22 35 1021.9 - 30.4 - - - - - - -
21/03:00am 16.5 SSE 22 36 1022.4 - 30.4 - - - - - - -
21/02:30am 16.7 SSE 23 41 1022.0 - 30.4 - - - - - - -
21/02:28am 16.6 SSE 23 41 1022.1 - 30.4 - - - - - - -
21/02:00am 16.9 SSE 21 31 1022.7 - 30.4 - - - - - - -
21/01:30am 16.0 SSE 23 36 1023.0 - 30.4 - - - - - - -
21/01:00am 15.9 S 24 36 1023.8 - 30.4 - - - - - - -
21/12:30am 16.6 SSE 23 38 1023.5 - 29.8 - - - - - - -
21/12:00am 16.2 SSE 26 41 1023.3 - 29.8 - - - - - - -
 
Date/Time
EST
Temp

°C
Wind Pressure Rain
since 9am
mm
Weather Cloud Vis
km
Sea
Height
m
Swell
Dir
 
Speed
knots
Gust
knots
hPa Trend Height
m
Period
s
Dir
20/11:30pm 16.7 SSE 24 37 1023.3 - 29.8 - - - - - - -
20/11:00pm 16.9 SSE 22 34 1023.9 - 29.8 - - - - - - -
20/10:30pm 16.7 SSE 23 36 1024.0 - 29.8 - - - - - - -
20/10:00pm 16.4 SSE 23 36 1024.4 - 29.8 - - - - - - -
20/09:30pm 15.6 SSE 22 36 1025.1 - 29.8 - - - - - - -
20/09:00pm 15.6 SSE 24 37 1025.1 - 29.8 - - - - - - -
20/08:30pm 15.1 SSE 23 37 1024.3 - 29.8 - - - - - - -
20/08:00pm 15.0 SSE 25 37 1023.9 - 29.2 - - - - - - -
20/07:30pm 15.9 S 24 42 1023.5 - 28.8 - - - - - - -
20/07:00pm 15.3 SSE 25 44 1023.8 - 28.8 - - - - - - -
20/06:30pm 15.6 S 26 42 1023.0 - 28.6 - - - - - - -
20/06:00pm 15.3 SSE 23 37 1023.2 - 28.0 - - - - - - -
20/05:30pm 16.2 SSE 25 39 1023.4 - 26.6 - - - - - - -
20/05:00pm 15.9 SSE 23 35 1023.2 - 26.0 - - - - - - -
20/04:30pm 15.8 SSE 21 33 1023.4 - 24.4 - - - - - - -
20/04:00pm 16.0 SSE 22 41 1023.1 - 23.2 - - - - - - -
20/03:30pm 15.8 S 25 41 1022.4 - 21.2 - - - - - - -
20/03:00pm 15.6 S 25 44 1021.9 - 20.6 Rain - - - - - -
20/02:30pm 15.6 SSE 28 44 1021.8 - 19.2 - - - - - - -
20/02:00pm 15.1 S 23 41 1022.5 - 17.2 - - - - - - -
20/01:30pm 15.5 S 25 38 1023.3 - 15.8 - - - - - - -
20/01:00pm 15.3 S 24 39 1022.9 - 14.4 - - - - - - -
20/12:30pm 15.5 S 26 38 1023.0 - 13.0 - - - - - - -
20/12:00pm 14.9 SSE 25 48 1023.8 - 11.4 - - - - - - -
20/11:49am 15.3 SSE 26 42 1023.9 - 10.6 - - - - - - -
20/11:30am 15.8 S 21 32 1024.3 - 8.8 - - - - - - -
20/11:00am 15.1 S 27 38 1024.1 - 7.4 - - - - - - -
20/10:30am 14.8 S 26 42 1024.3 - 5.8 - - - - - - -
20/10:00am 15.1 S 25 41 1024.5 - 4.6 - - - - - - -
20/09:30am 14.8 SSE 23 35 1025.2 - 2.8 - - - - - - -
20/09:00am 14.8 S 23 37 1025.3 - 27.0 - - - - - - -
20/08:30am 14.7 S 20 34 1024.7 - 26.0 - - - - - - -
20/08:00am 14.9 S 20 33 1025.3 - 25.4 - - - - - - -
20/07:30am 14.7 S 23 37 1024.6 - 24.8 - - - - - - -
20/07:00am 14.6 S 24 36 1024.1 - 23.8 - - - - - - -
20/06:30am 14.4 S 21 33 1024.2 - 21.4 - - - - - - -
20/06:00am 14.5 SSE 21 32 1024.7 - 19.0 - - - - - - -
20/05:30am 15.7 S 19 32 1023.9 - 18.4 - - - - - - -
20/05:00am 15.0 S 19 33 1022.9 - 18.4 - - - - - - -
20/04:30am 14.9 S 20 32 1023.0 - 17.6 - - - - - - -
20/04:00am 14.7 SSW 22 35 1023.1 - 16.6 - - - - - - -
20/03:30am 15.5 S 21 35 1022.4 - 16.6 - - - - - - -
20/03:00am 14.2 S 24 37 1022.1 - 16.6 - - - - - - -
20/02:59am 14.2 S 24 37 1021.6 - 16.6 - - - - - - -
20/02:30am 14.2 SSW 23 36 1023.7 - 16.4 - - - - - - -
20/02:00am 14.9 S 22 36 1023.3 - 16.4 - - - - - - -
20/01:30am 14.7 SSW 23 36 1024.1 - 16.4 - - - - - - -
20/01:00am 14.8 SSW 17 28 1024.3 - 16.4 - - - - - - -
20/12:57am 14.0 SSW 17 28 1025.0 - 16.4 - - - - - - -
20/12:30am 13.7 SSW 18 37 1023.0 - 16.2 - - - - - - -
20/12:00am 13.8 SSW 22 35 1024.6 - 15.4 - - - - - - -
 
Date/Time
EST
Temp

°C
Wind Pressure Rain
since 9am
mm
Weather Cloud Vis
km
Sea
Height
m
Swell
Dir
 
Speed
knots
Gust
knots
hPa Trend Height
m
Period
s
Dir
19/11:30pm 13.3 SSW 21 37 1023.9 - 14.6 - - - - - - -
19/11:00pm 13.7 SSW 21 31 1024.6 - 13.4 - - - - - - -
19/10:30pm 13.6 SSW 18 29 1025.0 - 13.0 - - - - - - -
19/10:00pm 14.2 SSW 19 31 1024.8 - 8.4 - - - - - - -
19/09:30pm 14.5 S 20 31 1024.4 - 7.2 - - - - - - -
19/09:13pm 14.9 SSW 18 28 1024.0 - 6.6 - - - - - - -
19/09:00pm 14.2 SSW 19 28 1024.2 - 6.4 - - - - - - -
19/08:46pm 14.7 SSW 15 25 1024.0 - 6.2 - - - - - - -
19/08:30pm 14.4 SSW 14 24 1023.8 - 6.0 - - - - - - -
19/08:00pm 13.5 WSW 9 13 1025.1 - 5.4 - - - - - - -
19/07:30pm 13.5 SW 7 12 1024.9 - 5.0 - - - - - - -
19/07:14pm 14.0 S 15 26 1024.7 - 4.6 - - - - - - -
19/07:00pm 14.9 S 15 23 1023.6 - 4.4 - - - - - - -
19/06:39pm 14.5 SSW 15 25 1023.3 - 4.2 - - - - - - -
19/06:30pm 14.3 SSW 17 26 1023.0 - 4.2 - - - - - - -
19/06:00pm 14.3 SSW 17 29 1022.4 - 4.2 - - - - - - -
19/05:30pm 13.6 SSW 17 28 1022.3 - 4.2 - - - - - - -
19/05:26pm 13.7 SSW 15 28 1022.7 - 4.0 - - - - - - -
19/05:00pm 13.1 SW 13 19 1022.9 - 3.8 - - - - - - -
19/04:30pm 14.2 SW 12 21 1021.6 - 3.8 - - - - - - -
19/04:00pm 13.9 SSW 14 25 1021.8 - 3.8 - - - - - - -
19/03:30pm 14.7 SSW 16 27 1020.7 - 3.8 - - - - - - -
19/03:00pm 14.8 SSW 18 28 1020.1 - 3.8 - - - - - - -
19/02:37pm 15.7 SSW 16 26 1020.1 - 3.8 - - - - - - -
19/02:30pm 15.7 SSW 17 26 1019.6 - 3.8 - - - - - - -
19/02:00pm 16.3 S 15 26 1019.8 - 3.8 - - - - - - -

Other Formats:

Comma delimited format used in spreadsheet applications
http://www.bom.gov.au/fwo/IDN60701/IDN60701.95940.axf

JavaScript Object Notation format (JSON) in row-major order
http://www.bom.gov.au/fwo/IDN60701/IDN60701.95940.json